Time;durP1;ratioP1;P1;durP2;ratioP2;P2;SDS_P1;SDS_P2;PMS_P1;PMS_P2;Temp;Humidity;BMP_temperature;BMP_pressure;BME280_temperature;BME280_humidity;BME280_pressure;Samples;Min_cycle;Max_cycle;Signal;HPM_P1;HPM_P2
2023/03/15 00:02:04;;;;;;;43.25;18.08;;;;;;;4.81;70.33;99284.00;5066771;28;20027;-24
2023/03/15 00:04:31;;;;;;;25.92;12.82;;;;;;;4.49;72.03;99267.06;5066745;28;20106;-29
2023/03/15 00:06:57;;;;;;;48.30;22.83;;;;;;;4.52;72.20;99279.88;5066745;28;20028;-24
2023/03/15 00:09:23;;;;;;;28.10;14.88;;;;;;;4.37;72.71;99255.44;5067904;28;20031;-24
2023/03/15 00:11:49;;;;;;;20.60;11.38;;;;;;;4.62;72.79;99275.03;5067969;28;20158;-24
2023/03/15 00:14:15;;;;;;;27.27;12.38;;;;;;;4.39;72.32;99259.53;5066743;28;20021;-24
2023/03/15 00:16:41;;;;;;;34.90;16.92;;;;;;;4.51;73.17;99269.50;5068013;28;20035;-28
2023/03/15 00:19:07;;;;;;;32.92;16.52;;;;;;;4.58;72.24;99251.88;5050129;28;20028;-24
2023/03/15 00:21:34;;;;;;;32.45;15.60;;;;;;;4.66;71.91;99258.78;5066471;28;20064;-24
2023/03/15 00:23:59;;;;;;;31.50;17.67;;;;;;;4.31;73.47;99257.09;5066071;28;20074;-26
2023/03/15 00:26:25;;;;;;;45.38;20.25;;;;;;;4.19;75.18;99254.19;5066797;28;20024;-25
2023/03/15 00:28:50;;;;;;;28.13;14.13;;;;;;;4.37;73.29;99229.06;5068173;28;20028;-22
2023/03/15 00:31:17;;;;;;;29.60;14.13;;;;;;;4.41;73.77;99241.69;5067979;28;20025;-24
2023/03/15 00:33:43;;;;;;;19.92;10.90;;;;;;;4.23;74.12;99241.41;5066345;28;20135;-24
2023/03/15 00:36:10;;;;;;;40.05;18.13;;;;;;;4.42;73.27;99222.16;5068109;28;20455;-24
2023/03/15 00:38:38;;;;;;;29.45;14.82;;;;;;;4.52;73.14;99223.63;5066507;28;20040;-28
2023/03/15 00:41:13;;;;;;;18.65;9.25;;;;;;;4.57;72.96;99218.53;5066536;28;20036;-28
2023/03/15 00:43:38;;;;;;;30.67;15.38;;;;;;;4.45;73.19;99220.16;5066972;28;20508;-23
2023/03/15 00:46:05;;;;;;;18.80;10.20;;;;;;;4.41;72.94;99207.38;5071706;28;20095;-26
2023/03/15 00:48:31;;;;;;;18.38;9.50;;;;;;;4.12;73.82;99211.13;5070491;28;20059;-23
2023/03/15 00:51:07;;;;;;;13.80;7.05;;;;;;;4.36;72.90;99214.25;5069932;28;20024;-24
2023/03/15 00:53:34;;;;;;;38.00;18.35;;;;;;;4.11;72.83;99198.13;5071594;28;20678;-24
2023/03/15 00:56:08;;;;;;;30.65;15.80;;;;;;;4.28;72.36;99204.69;5070148;28;20653;-24
2023/03/15 00:58:34;;;;;;;29.33;13.90;;;;;;;4.25;73.58;99213.00;5071880;28;20033;-25
2023/03/15 01:01:03;;;;;;;19.20;10.13;;;;;;;3.92;73.64;99175.94;5071375;28;20515;-26
2023/03/15 01:03:29;;;;;;;23.00;10.32;;;;;;;4.15;73.54;99184.34;5069861;28;20511;-27
2023/03/15 01:05:54;;;;;;;16.98;9.13;;;;;;;4.06;73.23;99187.34;5071455;28;20089;-25
2023/03/15 01:08:19;;;;;;;31.48;13.52;;;;;;;4.08;74.02;99188.78;5071358;28;20036;-24
2023/03/15 01:10:45;;;;;;;23.17;10.80;;;;;;;4.12;73.32;99186.56;5071342;28;20682;-24
2023/03/15 01:13:10;;;;;;;28.60;12.88;;;;;;;3.97;74.84;99171.69;5071369;28;20090;-24
2023/03/15 01:15:36;;;;;;;45.10;21.50;;;;;;;4.03;75.05;99186.75;5071257;28;20058;-30
2023/03/15 01:18:01;;;;;;;22.02;9.93;;;;;;;3.76;76.29;99179.72;5070806;28;20500;-25
2023/03/15 01:20:26;;;;;;;41.20;18.17;;;;;;;3.87;75.72;99162.53;5071349;28;20020;-24
2023/03/15 01:22:52;;;;;;;37.70;19.38;;;;;;;4.17;75.06;99179.69;5080834;28;20063;-25
2023/03/15 01:25:17;;;;;;;13.75;8.00;;;;;;;3.95;75.75;99178.19;5091610;28;20502;-25
2023/03/15 01:27:43;;;;;;;16.83;9.18;;;;;;;4.00;75.53;99195.06;5090984;28;20051;-25
2023/03/15 01:30:09;;;;;;;17.27;9.73;;;;;;;4.06;75.61;99190.00;5090915;28;20035;-25
2023/03/15 01:32:34;;;;;;;13.95;9.20;;;;;;;3.93;76.21;99191.56;5072580;28;20078;-24
2023/03/15 01:35:00;;;;;;;16.08;9.88;;;;;;;3.92;76.97;99194.41;5091101;28;20063;-27
2023/03/15 01:37:25;;;;;;;14.55;7.72;;;;;;;3.78;76.77;99190.88;5091162;28;20484;-24
2023/03/15 01:39:51;;;;;;;37.78;20.15;;;;;;;3.89;76.39;99178.97;5090648;28;20035;-28
2023/03/15 01:42:16;;;;;;;17.60;9.30;;;;;;;3.84;77.24;99176.91;5091025;28;20032;-24
2023/03/15 01:44:58;;;;;;;28.33;19.42;;;;;;;3.70;76.89;99157.59;5090658;28;20028;-28
2023/03/15 01:47:27;;;;;;;15.38;9.48;;;;;;;4.07;75.78;99186.34;5072420;28;20036;-23
2023/03/15 01:50:05;;;;;;;13.80;8.07;;;;;;;4.09;75.42;99176.41;5072383;28;20088;-27
2023/03/15 01:52:38;;;;;;;22.80;10.55;;;;;;;4.21;74.72;99175.63;5090831;28;20411;-25
2023/03/15 01:55:09;;;;;;;128.55;43.30;;;;;;;4.18;74.84;99159.38;5072047;28;20024;-23
2023/03/15 01:57:40;;;;;;;132.65;48.22;;;;;;;4.32;74.72;99179.50;5090481;28;20038;-24
2023/03/15 02:00:10;;;;;;;71.45;28.00;;;;;;;4.22;74.83;99179.88;5072356;28;20027;-30
2023/03/15 02:02:45;;;;;;;52.35;21.38;;;;;;;4.26;75.45;99195.34;5090843;28;20071;-27
2023/03/15 02:05:17;;;;;;;37.72;19.23;;;;;;;3.77;76.41;99166.34;5072371;28;20053;-24
2023/03/15 02:07:48;;;;;;;13.88;8.27;;;;;;;4.08;75.74;99195.88;5072138;28;20032;-24
2023/03/15 02:10:19;;;;;;;10.77;6.28;;;;;;;4.11;75.22;99195.50;5090147;28;20078;-27
2023/03/15 02:12:50;;;;;;;19.88;12.10;;;;;;;4.05;75.62;99191.00;5090502;28;20024;-25
2023/03/15 02:15:16;;;;;;;18.70;9.32;;;;;;;4.00;75.64;99192.44;5072622;28;20098;-25
2023/03/15 02:17:46;;;;;;;78.72;31.25;;;;;;;3.96;75.96;99175.38;5071761;28;20119;-28
2023/03/15 02:20:27;;;;;;;13.35;6.45;;;;;;;3.66;77.15;99177.47;5071872;28;20032;-25
2023/03/15 02:22:56;;;;;;;10.15;5.85;;;;;;;3.81;76.53;99182.59;5089408;28;20098;-24
2023/03/15 02:25:47;;;;;;;11.52;5.00;;;;;;;3.84;77.15;99179.53;5071966;28;20028;-23
2023/03/15 02:28:15;;;;;;;10.80;5.28;;;;;;;3.85;76.78;99177.75;5071898;28;20513;-28
2023/03/15 02:30:42;;;;;;;10.30;5.93;;;;;;;3.80;76.58;99165.13;5071765;28;20039;-25
2023/03/15 02:33:31;;;;;;;11.82;5.38;;;;;;;3.69;77.20;99179.69;5071394;28;20097;-23
2023/03/15 02:36:08;;;;;;;8.13;4.82;;;;;;;3.88;75.74;99170.22;5088737;28;20507;-26
2023/03/15 02:38:33;;;;;;;8.88;5.05;;;;;;;3.71;77.46;99176.88;5071587;28;20024;-30
2023/03/15 02:40:59;;;;;;;10.20;5.93;;;;;;;3.53;77.76;99165.00;5089812;28;20024;-26
2023/03/15 02:43:28;;;;;;;11.80;5.45;;;;;;;3.68;77.35;99166.69;5089297;28;20478;-23
2023/03/15 02:45:54;;;;;;;10.02;5.65;;;;;;;3.67;77.60;99162.44;5089653;28;20024;-29
2023/03/15 02:48:20;;;;;;;11.90;5.28;;;;;;;3.84;76.37;99166.34;5090110;28;20115;-24
2023/03/15 02:50:46;;;;;;;10.07;5.32;;;;;;;3.69;77.46;99158.59;5089581;28;20110;-23
2023/03/15 02:53:11;;;;;;;10.60;5.35;;;;;;;3.52;77.39;99149.41;5089739;28;20111;-23
2023/03/15 02:55:37;;;;;;;10.35;5.65;;;;;;;3.47;78.59;99165.78;5089237;28;20099;-24
2023/03/15 02:58:02;;;;;;;12.60;6.50;;;;;;;3.49;78.35;99163.78;5089257;28;20024;-25
2023/03/15 03:00:28;;;;;;;13.45;7.88;;;;;;;3.42;78.87;99157.66;5089364;28;20053;-26
2023/03/15 03:02:54;;;;;;;10.32;5.68;;;;;;;3.41;78.82;99163.94;5089387;28;20032;-24
2023/03/15 03:05:20;;;;;;;9.93;6.05;;;;;;;3.51;78.50;99167.03;5089478;28;20028;-27
2023/03/15 03:07:45;;;;;;;12.38;5.78;;;;;;;3.52;78.63;99168.66;5088193;28;20035;-24
2023/03/15 03:10:14;;;;;;;12.70;5.60;;;;;;;3.61;78.29;99171.94;5089308;28;20066;-24
2023/03/15 03:12:39;;;;;;;;;;;;;;;3.28;78.37;99161.22;5071121;28;20052;-23
2023/03/15 03:15:06;;;;;;;10.18;5.57;;;;;;;2.96;80.16;99142.38;5089414;28;19947;-24
2023/03/15 03:17:36;;;;;;;11.43;5.50;;;;;;;3.26;78.90;99147.44;5089080;28;20028;-24
2023/03/15 03:20:09;;;;;;;11.63;5.32;;;;;;;3.37;78.13;99144.25;5071051;28;20067;-24
2023/03/15 03:22:36;;;;;;;10.05;5.28;;;;;;;3.31;78.54;99151.13;5088661;28;20059;-26
2023/03/15 03:25:02;;;;;;;11.32;5.88;;;;;;;3.41;78.61;99148.13;5070659;28;20070;-26
2023/03/15 03:27:28;;;;;;;30.15;16.83;;;;;;;3.40;78.51;99157.03;5070611;28;20032;-25
2023/03/15 03:29:54;;;;;;;43.22;23.02;;;;;;;3.35;78.10;99146.25;5070764;28;20032;-30
2023/03/15 03:32:19;;;;;;;175.88;83.50;;;;;;;3.53;77.58;99159.75;5089134;28;20411;-24
2023/03/15 03:34:47;;;;;;;22.13;12.88;;;;;;;3.34;77.56;99149.91;5089068;28;20020;-26
2023/03/15 03:37:19;;;;;;;15.00;8.75;;;;;;;3.22;78.72;99147.00;5070499;28;20486;-25
2023/03/15 03:39:44;;;;;;;14.73;8.45;;;;;;;3.13;78.97;99143.72;5088313;28;20475;-25
2023/03/15 03:42:10;;;;;;;17.60;12.25;;;;;;;3.19;78.24;99150.03;5088614;28;20066;-24
2023/03/15 03:44:36;;;;;;;24.92;17.88;;;;;;;3.26;78.25;99147.44;5088629;28;20024;-25
2023/03/15 03:47:01;;;;;;;17.20;11.82;;;;;;;3.14;78.57;99134.00;5088692;28;20032;-25
2023/03/15 03:49:27;;;;;;;13.25;7.25;;;;;;;2.96;78.88;99140.56;5088480;28;20407;-24
2023/03/15 03:51:52;;;;;;;18.48;8.00;;;;;;;2.77;79.31;99138.59;5088367;28;20024;-24
2023/03/15 03:54:20;;;;;;;28.35;13.23;;;;;;;3.01;78.89;99155.78;5088631;28;20028;-26
2023/03/15 03:56:46;;;;;;;111.93;36.20;;;;;;;2.80;79.19;99151.41;5070472;28;20032;-25
2023/03/15 03:59:12;;;;;;;25.77;9.90;;;;;;;2.63;80.61;99148.19;5070266;28;20449;-27
2023/03/15 04:01:38;;;;;;;53.90;20.75;;;;;;;2.54;81.32;99139.63;5088039;28;20070;-24
2023/03/15 04:04:03;;;;;;;291.85;93.05;;;;;;;2.68;81.40;99127.41;5088344;28;20060;-25
2023/03/15 04:06:28;;;;;;;222.35;74.07;;;;;;;2.49;83.47;99136.72;5088213;28;20048;-27
2023/03/15 04:08:54;;;;;;;144.98;46.30;;;;;;;2.37;84.89;99123.28;5088074;28;20035;-23
2023/03/15 04:11:19;;;;;;;185.10;57.95;;;;;;;2.42;85.67;99120.91;5069882;28;20032;-23
2023/03/15 04:13:45;;;;;;;128.45;45.17;;;;;;;2.47;85.94;99119.50;5088228;28;20093;-26
2023/03/15 04:16:11;;;;;;;278.48;90.78;;;;;;;2.56;84.68;99108.66;5088198;28;20081;-23
2023/03/15 04:18:39;;;;;;;83.70;28.42;;;;;;;2.50;84.75;99121.78;5069911;28;20068;-25
2023/03/15 04:21:09;;;;;;;58.95;22.02;;;;;;;2.44;84.89;99110.19;5088203;28;20085;-23
2023/03/15 04:23:35;;;;;;;308.40;92.10;;;;;;;2.70;83.71;99106.97;5069157;28;20056;-24
2023/03/15 04:26:02;;;;;;;288.48;77.68;;;;;;;2.88;83.10;99129.34;5088283;28;20055;-23
2023/03/15 04:28:29;;;;;;;314.25;88.28;;;;;;;2.53;84.59;99126.66;5069914;28;20032;-23
2023/03/15 04:30:57;;;;;;;227.63;67.68;;;;;;;2.48;84.38;99129.06;5069883;28;20031;-23
2023/03/15 04:33:23;;;;;;;253.95;74.10;;;;;;;2.37;84.56;99111.94;5069901;28;20151;-28
2023/03/15 04:35:51;;;;;;;189.07;53.00;;;;;;;2.35;85.21;99111.31;5069430;28;20509;-23
2023/03/15 04:38:17;;;;;;;242.03;71.03;;;;;;;2.50;84.87;99116.53;5070005;28;20062;-23
2023/03/15 04:40:42;;;;;;;148.40;43.90;;;;;;;2.67;83.48;99125.75;5069952;28;20021;-24
2023/03/15 04:43:08;;;;;;;147.65;44.97;;;;;;;2.64;83.53;99120.88;5088019;28;20032;-27
2023/03/15 04:45:33;;;;;;;334.17;91.60;;;;;;;2.70;83.44;99129.84;5088301;28;20032;-23
2023/03/15 04:48:00;;;;;;;309.65;84.50;;;;;;;2.75;82.65;99127.44;5087751;28;20423;-27
2023/03/15 04:50:26;;;;;;;212.38;62.70;;;;;;;2.38;84.04;99109.13;5069546;28;20066;-24
2023/03/15 04:52:52;;;;;;;540.42;204.90;;;;;;;2.65;84.06;99148.00;5069700;28;20028;-23
2023/03/15 04:55:18;;;;;;;513.97;200.52;;;;;;;2.59;83.88;99144.31;5087757;28;20521;-27
2023/03/15 04:57:43;;;;;;;53.25;30.50;;;;;;;2.29;84.64;99123.44;5069548;28;20598;-23
2023/03/15 05:00:11;;;;;;;24.02;13.07;;;;;;;2.66;84.55;99147.84;5087789;28;20024;-25
2023/03/15 05:02:40;;;;;;;12.15;7.20;;;;;;;2.74;83.45;99134.53;5087759;28;20024;-24
2023/03/15 05:05:06;;;;;;;;;;;;;;;2.65;84.08;99138.28;5088017;28;20031;-24
2023/03/15 05:07:35;;;;;;;176.07;66.00;;;;;;;2.76;82.86;99111.47;5069775;28;19995;-25
2023/03/15 05:10:00;;;;;;;169.10;59.15;;;;;;;2.98;82.12;99116.66;5069374;28;20104;-25
2023/03/15 05:12:27;;;;;;;166.88;56.40;;;;;;;3.05;81.45;99119.34;5087890;28;20106;-26
2023/03/15 05:14:53;;;;;;;112.20;37.85;;;;;;;3.16;80.81;99116.97;5069462;28;20027;-23
2023/03/15 05:17:18;;;;;;;39.13;15.27;;;;;;;3.12;81.21;99115.72;5087455;28;20024;-28
2023/03/15 05:19:44;;;;;;;177.98;53.25;;;;;;;3.06;81.36;99116.50;5087113;28;20115;-24
2023/03/15 05:22:10;;;;;;;141.38;44.72;;;;;;;3.25;81.17;99119.44;5087030;28;20071;-24
2023/03/15 05:24:36;;;;;;;28.45;14.50;;;;;;;2.91;82.21;99119.25;5069548;28;20028;-24
2023/03/15 05:27:03;;;;;;;15.48;9.68;;;;;;;2.84;82.96;99102.59;5087555;28;20020;-24
2023/03/15 05:29:29;;;;;;;20.65;11.13;;;;;;;3.04;82.72;99107.97;5069681;28;20028;-23
2023/03/15 05:31:54;;;;;;;17.73;10.75;;;;;;;3.01;82.01;99105.75;5072688;28;20043;-23
2023/03/15 05:34:23;;;;;;;15.25;9.52;;;;;;;3.05;82.12;99128.06;5090950;28;20035;-31
2023/03/15 05:36:49;;;;;;;;;;;;;;;3.09;83.21;99131.94;5091896;28;20028;-24
2023/03/15 05:39:15;;;;;;;20.20;10.10;;;;;;;3.15;82.16;99128.53;5072766;28;19994;-27
2023/03/15 05:41:41;;;;;;;23.15;11.68;;;;;;;2.97;82.50;99112.41;5072607;28;20114;-26
2023/03/15 05:44:06;;;;;;;20.73;12.52;;;;;;;3.12;82.57;99126.28;5090845;28;20024;-24
2023/03/15 05:46:32;;;;;;;28.48;16.85;;;;;;;3.03;83.55;99137.97;5090857;28;20042;-27
2023/03/15 05:48:57;;;;;;;20.40;11.45;;;;;;;3.06;83.17;99110.44;5090527;28;20406;-24
2023/03/15 05:51:23;;;;;;;18.50;10.65;;;;;;;3.27;82.77;99133.25;5091061;28;20020;-24
2023/03/15 05:53:48;;;;;;;16.92;8.85;;;;;;;2.94;83.21;99107.50;5090480;28;20036;-28
2023/03/15 05:56:13;;;;;;;29.95;20.38;;;;;;;3.15;83.61;99136.44;5090754;28;20031;-24
2023/03/15 05:58:39;;;;;;;34.53;22.45;;;;;;;3.35;83.29;99131.28;5091003;28;20024;-25
2023/03/15 06:01:04;;;;;;;24.27;15.57;;;;;;;3.54;81.71;99139.47;5090693;28;20082;-24
2023/03/15 06:03:30;;;;;;;20.20;13.77;;;;;;;3.61;81.29;99124.50;5090223;28;20064;-26
2023/03/15 06:05:57;;;;;;;30.13;20.70;;;;;;;3.39;82.15;99126.41;5072216;28;20345;-26
2023/03/15 06:08:23;;;;;;;32.15;19.20;;;;;;;3.75;82.52;99139.34;5072399;28;20115;-24
2023/03/15 06:10:48;;;;;;;23.80;16.40;;;;;;;3.75;81.49;99141.19;5072092;28;20120;-24
2023/03/15 06:13:14;;;;;;;24.05;16.15;;;;;;;3.90;80.91;99136.56;5090523;28;20070;-24
2023/03/15 06:15:39;;;;;;;18.77;10.90;;;;;;;3.87;81.48;99133.53;5090148;28;20415;-23
2023/03/15 06:18:05;;;;;;;21.88;13.50;;;;;;;3.94;81.04;99143.09;5089931;28;20506;-27
2023/03/15 06:20:31;;;;;;;22.23;12.18;;;;;;;3.95;81.45;99130.72;5090437;28;20034;-25
2023/03/15 06:22:56;;;;;;;15.07;9.52;;;;;;;4.36;80.06;99117.38;5089553;28;20183;-24
2023/03/15 06:25:22;;;;;;;33.08;18.52;;;;;;;4.51;79.30;99119.00;5090122;28;20076;-25
2023/03/15 06:27:48;;;;;;;43.33;24.20;;;;;;;4.39;79.42;99106.44;5071644;28;20028;-27
2023/03/15 06:30:14;;;;;;;52.70;25.85;;;;;;;4.43;79.14;99112.94;5090213;28;20026;-24
2023/03/15 06:32:39;;;;;;;46.05;23.67;;;;;;;4.30;80.00;99115.56;5071895;28;20134;-24
2023/03/15 06:35:05;;;;;;;37.22;17.42;;;;;;;4.43;80.00;99112.09;5090312;28;20023;-26
2023/03/15 06:37:31;;;;;;;42.13;18.92;;;;;;;4.40;80.28;99102.75;5089961;28;20024;-30
2023/03/15 06:39:57;;;;;;;56.00;27.40;;;;;;;4.45;80.08;99118.00;5089580;28;20028;-24
2023/03/15 06:42:22;;;;;;;21.42;11.48;;;;;;;4.19;79.93;99122.25;5071555;28;20032;-24
2023/03/15 06:44:48;;;;;;;29.65;14.40;;;;;;;4.39;78.94;99111.72;5089615;28;20032;-25
2023/03/15 06:47:13;;;;;;;59.72;29.48;;;;;;;4.54;78.21;99105.44;5089641;28;20042;-24
2023/03/15 06:49:38;;;;;;;31.17;17.25;;;;;;;4.69;77.25;99116.56;5089453;28;20476;-26
2023/03/15 06:52:06;;;;;;;33.47;19.48;;;;;;;4.76;77.32;99121.84;5089744;28;20038;-23
2023/03/15 06:54:31;;;;;;;42.22;23.20;;;;;;;4.72;77.72;99104.78;5089595;28;20028;-25
2023/03/15 06:56:57;;;;;;;29.10;17.33;;;;;;;4.77;77.13;99116.38;5089625;28;20506;-26
2023/03/15 06:59:22;;;;;;;21.15;15.05;;;;;;;4.88;76.24;99122.06;5089540;28;20098;-24
2023/03/15 07:01:48;;;;;;;17.30;10.57;;;;;;;5.02;76.65;99115.72;5089021;28;20028;-27
2023/03/15 07:04:13;;;;;;;39.38;19.08;;;;;;;5.11;76.48;99111.88;5089414;28;20032;-24
2023/03/15 07:06:39;;;;;;;31.15;17.65;;;;;;;5.44;74.29;99129.47;5089297;28;20039;-25
2023/03/15 07:09:04;;;;;;;18.67;10.25;;;;;;;5.36;73.87;99122.56;5089450;28;20035;-24
2023/03/15 07:11:30;;;;;;;33.10;18.17;;;;;;;5.59;74.77;99119.44;5089177;28;20472;-25
2023/03/15 07:13:57;;;;;;;21.75;11.93;;;;;;;5.90;73.59;99109.13;5070912;28;20529;-26
2023/03/15 07:16:23;;;;;;;21.85;10.25;;;;;;;6.34;70.70;99102.97;5070460;28;20036;-24
2023/03/15 07:18:49;;;;;;;16.85;10.18;;;;;;;6.39;70.71;99113.72;5071127;28;20016;-24
2023/03/15 07:21:14;;;;;;;20.17;11.75;;;;;;;6.49;70.96;99120.41;5089129;28;20031;-25
2023/03/15 07:23:40;;;;;;;17.33;10.85;;;;;;;6.31;69.98;99118.47;5088292;28;20103;-27
2023/03/15 07:26:05;;;;;;;18.10;10.68;;;;;;;6.59;69.19;99131.31;5089034;28;20042;-23
2023/03/15 07:28:30;;;;;;;16.65;10.65;;;;;;;6.66;69.74;99134.75;5088947;28;20027;-24
2023/03/15 07:30:58;;;;;;;17.20;9.93;;;;;;;6.82;69.64;99120.97;5088762;28;20040;-27
2023/03/15 07:33:25;;;;;;;15.93;10.77;;;;;;;7.16;68.67;99126.75;5070663;28;20028;-25
2023/03/15 07:35:54;;;;;;;17.55;11.23;;;;;;;6.92;68.36;99114.34;5070679;28;20119;-25
2023/03/15 07:38:22;;;;;;;18.27;10.85;;;;;;;6.84;69.34;99124.19;5070314;28;20119;-29
2023/03/15 07:40:48;;;;;;;18.83;11.18;;;;;;;6.99;67.47;99131.00;5070616;28;20118;-30
2023/03/15 07:43:13;;;;;;;15.85;9.95;;;;;;;6.93;67.85;99100.06;5088699;28;20475;-24
2023/03/15 07:45:39;;;;;;;18.60;11.05;;;;;;;6.99;66.95;99104.50;5088017;28;20038;-25
2023/03/15 07:48:05;;;;;;;31.00;16.55;;;;;;;7.02;68.23;99127.91;5088695;28;20031;-25
2023/03/15 07:50:31;;;;;;;19.65;11.23;;;;;;;7.01;67.76;99113.84;5088439;28;20475;-24
2023/03/15 07:52:56;;;;;;;28.20;14.25;;;;;;;7.12;66.10;99100.88;5088057;28;20031;-24
2023/03/15 07:55:22;;;;;;;18.77;11.43;;;;;;;7.33;66.07;99104.94;5088260;28;20036;-23
2023/03/15 07:57:48;;;;;;;24.98;13.35;;;;;;;7.10;66.31;99095.81;5070147;28;20396;-24
2023/03/15 08:00:14;;;;;;;21.60;11.45;;;;;;;7.41;65.88;99086.06;5087943;28;20028;-24
2023/03/15 08:02:39;;;;;;;17.67;10.77;;;;;;;7.56;64.67;99094.47;5088626;28;20077;-24
2023/03/15 08:05:05;;;;;;;22.20;13.15;;;;;;;7.74;65.00;99080.34;5088621;28;20034;-23
2023/03/15 08:07:31;;;;;;;17.40;10.23;;;;;;;8.00;63.05;99079.19;5069737;28;20036;-27
2023/03/15 08:10:00;;;;;;;17.65;11.25;;;;;;;8.40;62.12;99093.75;5088150;28;20028;-26
2023/03/15 08:12:26;;;;;;;19.00;11.80;;;;;;;8.69;62.39;99092.06;5069948;28;20024;-24
2023/03/15 08:14:51;;;;;;;17.35;10.60;;;;;;;8.81;60.22;99084.91;5087941;28;20446;-25
2023/03/15 08:17:18;;;;;;;16.33;10.55;;;;;;;8.65;61.17;99074.97;5070022;28;20035;-24
2023/03/15 08:19:43;;;;;;;19.02;12.48;;;;;;;8.62;62.22;99076.22;5069732;28;20020;-24
2023/03/15 08:22:09;;;;;;;18.80;11.13;;;;;;;8.67;61.92;99075.53;5069440;28;20040;-24
2023/03/15 08:24:35;;;;;;;19.98;10.23;;;;;;;8.91;60.09;99078.19;5069983;28;20027;-25
2023/03/15 08:27:01;;;;;;;17.95;10.80;;;;;;;9.28;60.05;99069.94;5069701;28;20062;-26
2023/03/15 08:29:27;;;;;;;16.92;9.32;;;;;;;8.94;59.16;99075.06;5087895;28;20039;-25
2023/03/15 08:31:53;;;;;;;17.23;9.93;;;;;;;8.85;60.15;99061.31;5069815;28;20035;-25
2023/03/15 08:34:19;;;;;;;20.33;10.90;;;;;;;9.16;59.90;99059.31;5087940;28;20035;-26
2023/03/15 08:36:47;;;;;;;15.05;9.75;;;;;;;9.18;58.73;99058.03;5088378;28;20484;-25
2023/03/15 08:39:13;;;;;;;14.80;9.48;;;;;;;9.25;59.23;99057.91;5069557;28;20031;-25
2023/03/15 08:41:40;;;;;;;16.08;9.98;;;;;;;9.95;57.23;99051.53;5087787;28;20029;-25
2023/03/15 08:44:06;;;;;;;17.17;9.48;;;;;;;10.12;57.07;99034.78;5069300;28;20028;-25
2023/03/15 08:46:32;;;;;;;14.45;9.07;;;;;;;9.56;56.47;99022.09;5069815;28;20165;-24
2023/03/15 08:48:58;;;;;;;29.75;19.05;;;;;;;9.65;57.82;99027.81;5069722;28;20070;-24
2023/03/15 08:51:24;;;;;;;14.73;9.38;;;;;;;9.68;57.85;99026.53;5087779;28;20035;-26
2023/03/15 08:53:50;;;;;;;12.52;8.77;;;;;;;9.86;55.96;99024.47;5069472;28;20031;-25
2023/03/15 08:56:16;;;;;;;16.45;9.60;;;;;;;10.39;55.98;99014.44;5069342;28;20017;-25
2023/03/15 08:58:41;;;;;;;16.20;7.95;;;;;;;10.66;54.64;99008.44;5088081;28;20096;-24
2023/03/15 09:01:07;;;;;;;18.48;10.23;;;;;;;10.37;55.20;98984.56;5087806;28;20060;-27
2023/03/15 09:03:33;;;;;;;27.25;12.65;;;;;;;10.30;56.09;98993.75;5087789;28;20026;-25
2023/03/15 09:05:59;;;;;;;29.17;14.75;;;;;;;10.23;54.63;98999.22;5090208;28;20420;-25
2023/03/15 09:08:25;;;;;;;31.50;15.95;;;;;;;10.18;56.12;98991.19;5091688;28;20085;-25
2023/03/15 09:10:57;;;;;;;23.20;12.02;;;;;;;10.31;55.61;98996.19;5073190;28;20642;-24
2023/03/15 09:13:23;;;;;;;14.75;8.77;;;;;;;10.62;55.49;98996.66;5091651;28;20486;-25
2023/03/15 09:15:53;;;;;;;14.57;8.93;;;;;;;10.43;55.97;98990.78;5091531;28;20111;-25
2023/03/15 09:18:19;;;;;;;16.38;9.38;;;;;;;10.17;55.62;98978.88;5073191;28;20028;-23
2023/03/15 09:20:45;;;;;;;19.00;11.43;;;;;;;10.39;56.18;99001.13;5091357;28;20027;-26
2023/03/15 09:23:11;;;;;;;17.45;10.73;;;;;;;10.39;56.17;98990.44;5072691;28;20048;-26
2023/03/15 09:25:37;;;;;;;15.95;9.48;;;;;;;10.93;55.31;98999.72;5090895;28;20043;-26
2023/03/15 09:28:04;;;;;;;26.38;15.13;;;;;;;10.93;54.32;98991.72;5091318;28;20071;-25
2023/03/15 09:30:29;;;;;;;22.58;13.82;;;;;;;11.03;55.78;98991.84;5073138;28;20016;-25
2023/03/15 09:32:55;;;;;;;29.85;16.58;;;;;;;11.31;52.61;98992.72;5091036;28;20110;-26
2023/03/15 09:35:20;;;;;;;13.80;8.48;;;;;;;11.09;53.14;98995.41;5091132;28;20027;-26
2023/03/15 09:37:47;;;;;;;15.63;9.07;;;;;;;11.06;53.55;98978.03;5090610;28;20016;-25
2023/03/15 09:40:19;;;;;;;17.80;10.18;;;;;;;11.54;52.79;98991.63;5072580;28;20035;-26
2023/03/15 09:43:07;;;;;;;14.07;9.00;;;;;;;11.73;51.10;98984.88;5091076;28;20031;-26
2023/03/15 09:46:19;;;;;;;12.90;7.85;;;;;;;11.76;51.65;98988.91;5072758;28;20055;-30
2023/03/15 09:48:53;;;;;;;14.35;9.23;;;;;;;11.79;51.80;98988.38;5071953;28;20518;-29
2023/03/15 09:51:37;;;;;;;14.68;7.45;;;;;;;12.44;49.67;98974.00;5072661;28;20038;-24
2023/03/15 09:54:08;;;;;;;12.15;6.65;;;;;;;11.97;50.21;98972.03;5072483;28;20044;-25
2023/03/15 09:56:58;;;;;;;12.93;7.65;;;;;;;12.47;50.01;98978.00;5072468;28;20172;-25
2023/03/15 09:59:31;;;;;;;14.98;7.53;;;;;;;12.22;48.34;98967.97;5072491;28;20075;-25
2023/03/15 10:02:00;;;;;;;13.68;7.82;;;;;;;12.73;48.08;98954.91;5090179;28;20498;-27
2023/03/15 10:04:28;;;;;;;;;;;;;;;13.36;47.60;98967.47;5072595;28;20526;-25
2023/03/15 10:06:59;;;;;;;11.80;7.10;;;;;;;13.37;46.98;98953.00;5090231;28;19912;-32
2023/03/15 10:09:36;;;;;;;16.60;8.43;;;;;;;13.77;45.41;98965.69;5090160;28;20102;-25
2023/03/15 10:12:09;;;;;;;14.88;7.43;;;;;;;13.59;44.40;98966.19;5072280;28;20035;-26
2023/03/15 10:14:34;;;;;;;12.35;7.68;;;;;;;13.93;42.32;98966.47;5072108;28;20110;-25
2023/03/15 10:17:09;;;;;;;11.48;7.13;;;;;;;14.48;42.75;98950.59;5090073;28;20186;-27
2023/03/15 10:19:44;;;;;;;13.05;7.40;;;;;;;14.18;43.16;98948.75;5071995;28;20477;-25
2023/03/15 10:22:13;;;;;;;12.65;6.60;;;;;;;13.98;41.63;98947.72;5086136;28;20067;-25
2023/03/15 10:24:57;;;;;;;9.30;6.18;;;;;;;14.78;39.37;98944.38;5090054;28;20028;-25
2023/03/15 10:27:35;;;;;;;14.13;6.43;;;;;;;14.33;40.50;98954.13;5088740;28;20044;-27
2023/03/15 10:30:11;;;;;;;11.05;6.10;;;;;;;14.00;40.45;98940.22;5089573;28;20028;-24
2023/03/15 10:32:42;;;;;;;10.35;6.05;;;;;;;14.18;41.23;98927.31;5090232;28;20100;-26
2023/03/15 10:35:14;;;;;;;12.07;6.05;;;;;;;14.56;40.23;98941.22;5088772;28;20410;-25
2023/03/15 10:37:41;;;;;;;10.10;6.00;;;;;;;14.60;39.74;98936.94;5089816;28;20024;-25
2023/03/15 10:40:17;;;;;;;13.25;6.03;;;;;;;14.96;41.02;98928.75;5088508;28;20056;-24
2023/03/15 10:42:44;;;;;;;18.60;8.45;;;;;;;15.03;40.40;98915.81;5088189;28;20034;-28
2023/03/15 10:45:21;;;;;;;10.50;6.35;;;;;;;15.22;38.47;98930.22;5088828;28;20020;-27
2023/03/15 10:47:47;;;;;;;11.13;5.95;;;;;;;15.37;37.81;98928.53;5088246;28;20032;-25
2023/03/15 10:50:31;;;;;;;8.93;5.95;;;;;;;14.41;39.55;98912.53;5088189;28;20086;-25
2023/03/15 10:52:58;;;;;;;11.02;5.60;;;;;;;14.29;41.79;98920.88;5089602;28;20110;-25
2023/03/15 10:55:36;;;;;;;9.93;6.00;;;;;;;14.62;40.10;98919.47;5088477;28;20180;-27
2023/03/15 10:58:17;;;;;;;12.38;5.95;;;;;;;14.40;39.63;98917.06;5089691;28;20028;-25
2023/03/15 11:00:51;;;;;;;12.77;6.03;;;;;;;15.07;38.15;98925.72;5089896;28;20039;-29
2023/03/15 11:03:24;;;;;;;9.90;5.65;;;;;;;15.82;36.82;98915.88;5088143;28;20027;-25
2023/03/15 11:05:57;;;;;;;11.10;6.40;;;;;;;16.44;37.41;98908.03;5088132;28;20055;-25
2023/03/15 11:08:44;;;;;;;10.23;5.80;;;;;;;16.90;36.82;98902.16;5089549;28;20486;-25
2023/03/15 11:11:10;;;;;;;11.50;6.33;;;;;;;16.55;37.43;98906.84;5089146;28;20494;-25
2023/03/15 11:13:38;;;;;;;10.88;6.13;;;;;;;16.63;37.84;98897.31;5089899;28;20043;-25
2023/03/15 11:16:06;;;;;;;9.70;6.28;;;;;;;16.51;36.87;98894.22;5087598;28;20028;-25
2023/03/15 11:18:53;;;;;;;11.57;6.53;;;;;;;16.54;37.58;98891.78;5087980;28;20094;-26
2023/03/15 11:21:22;;;;;;;11.32;6.03;;;;;;;16.75;37.28;98895.00;5089182;28;20020;-29
2023/03/15 11:23:50;;;;;;;10.90;5.90;;;;;;;16.11;37.80;98893.59;5070453;28;20105;-27
2023/03/15 11:26:21;;;;;;;10.70;6.15;;;;;;;15.83;37.86;98888.72;5087736;28;20123;-25
2023/03/15 11:28:55;;;;;;;10.55;6.18;;;;;;;15.77;37.63;98889.03;5087121;28;20077;-24
2023/03/15 11:31:23;;;;;;;11.00;5.85;;;;;;;16.07;36.80;98883.38;5087717;28;20038;-26